sensor_id;sensor_type;location;lat;lon;timestamp;pressure;altitude;pressure_sealevel;temperature;humidity
24390;BME280;12510;56.468;-3.004;2023-07-31T00:02:13;99235.22;;;15.31;100.00
24390;BME280;12510;56.468;-3.004;2023-07-31T00:04:39;99239.72;;;15.30;100.00
24390;BME280;12510;56.468;-3.004;2023-07-31T00:07:05;99241.75;;;15.28;100.00
24390;BME280;12510;56.468;-3.004;2023-07-31T00:09:33;99242.56;;;15.22;100.00
24390;BME280;12510;56.468;-3.004;2023-07-31T00:11:59;99235.84;;;15.19;100.00
24390;BME280;12510;56.468;-3.004;2023-07-31T00:14:26;99238.28;;;15.21;100.00
24390;BME280;12510;56.468;-3.004;2023-07-31T00:16:53;99230.13;;;15.16;100.00
24390;BME280;12510;56.468;-3.004;2023-07-31T00:19:20;99222.78;;;15.11;100.00
24390;BME280;12510;56.468;-3.004;2023-07-31T00:21:46;99224.78;;;15.09;100.00
24390;BME280;12510;56.468;-3.004;2023-07-31T00:24:13;99215.19;;;15.08;100.00
24390;BME280;12510;56.468;-3.004;2023-07-31T00:26:39;99209.69;;;15.03;100.00
24390;BME280;12510;56.468;-3.004;2023-07-31T00:29:06;99214.38;;;15.01;100.00
24390;BME280;12510;56.468;-3.004;2023-07-31T00:31:32;99204.56;;;14.95;100.00
24390;BME280;12510;56.468;-3.004;2023-07-31T00:33:59;99203.31;;;14.90;100.00
24390;BME280;12510;56.468;-3.004;2023-07-31T00:36:25;99209.03;;;14.87;100.00
24390;BME280;12510;56.468;-3.004;2023-07-31T00:38:51;99203.09;;;14.85;100.00
24390;BME280;12510;56.468;-3.004;2023-07-31T00:41:18;99205.34;;;14.82;100.00
24390;BME280;12510;56.468;-3.004;2023-07-31T00:43:44;99188.63;;;14.81;100.00
24390;BME280;12510;56.468;-3.004;2023-07-31T00:46:11;99183.13;;;14.83;100.00
24390;BME280;12510;56.468;-3.004;2023-07-31T00:48:39;99180.47;;;14.83;100.00
24390;BME280;12510;56.468;-3.004;2023-07-31T00:51:07;99180.88;;;14.80;100.00
24390;BME280;12510;56.468;-3.004;2023-07-31T00:53:36;99180.44;;;14.76;100.00
24390;BME280;12510;56.468;-3.004;2023-07-31T00:56:03;99167.38;;;14.68;100.00
24390;BME280;12510;56.468;-3.004;2023-07-31T00:58:30;99174.72;;;14.66;100.00
24390;BME280;12510;56.468;-3.004;2023-07-31T01:00:57;99170.63;;;14.63;100.00
24390;BME280;12510;56.468;-3.004;2023-07-31T01:03:24;99170.19;;;14.59;100.00
24390;BME280;12510;56.468;-3.004;2023-07-31T01:06:18;99167.50;;;14.53;100.00
24390;BME280;12510;56.468;-3.004;2023-07-31T01:11:43;99163.84;;;14.54;100.00
24390;BME280;12510;56.468;-3.004;2023-07-31T01:14:12;99160.16;;;14.48;100.00
24390;BME280;12510;56.468;-3.004;2023-07-31T01:16:39;99160.78;;;14.50;100.00
24390;BME280;12510;56.468;-3.004;2023-07-31T01:19:06;99160.53;;;14.45;100.00
24390;BME280;12510;56.468;-3.004;2023-07-31T01:26:38;99144.44;;;14.33;100.00
24390;BME280;12510;56.468;-3.004;2023-07-31T01:32:01;99143.56;;;14.26;100.00
24390;BME280;12510;56.468;-3.004;2023-07-31T01:34:28;99143.75;;;14.24;100.00
24390;BME280;12510;56.468;-3.004;2023-07-31T01:36:56;99134.19;;;14.30;100.00
24390;BME280;12510;56.468;-3.004;2023-07-31T01:39:24;99125.03;;;14.26;100.00
24390;BME280;12510;56.468;-3.004;2023-07-31T01:41:51;99128.06;;;14.23;100.00
24390;BME280;12510;56.468;-3.004;2023-07-31T01:44:17;99118.91;;;14.19;100.00
24390;BME280;12510;56.468;-3.004;2023-07-31T01:46:44;99120.53;;;14.20;100.00
24390;BME280;12510;56.468;-3.004;2023-07-31T01:49:10;99121.53;;;14.19;100.00
24390;BME280;12510;56.468;-3.004;2023-07-31T01:51:36;99118.50;;;14.22;100.00
24390;BME280;12510;56.468;-3.004;2023-07-31T01:54:03;99118.50;;;14.22;100.00
24390;BME280;12510;56.468;-3.004;2023-07-31T01:56:30;99109.13;;;14.26;100.00
24390;BME280;12510;56.468;-3.004;2023-07-31T01:58:56;99104.66;;;14.20;100.00
24390;BME280;12510;56.468;-3.004;2023-07-31T02:01:23;99107.66;;;14.17;100.00
24390;BME280;12510;56.468;-3.004;2023-07-31T02:03:49;99107.44;;;14.12;100.00
24390;BME280;12510;56.468;-3.004;2023-07-31T02:06:16;99100.13;;;14.14;100.00
24390;BME280;12510;56.468;-3.004;2023-07-31T02:08:43;99096.28;;;14.16;100.00
24390;BME280;12510;56.468;-3.004;2023-07-31T02:11:09;99097.09;;;14.17;100.00
24390;BME280;12510;56.468;-3.004;2023-07-31T02:13:36;99098.28;;;14.14;100.00
24390;BME280;12510;56.468;-3.004;2023-07-31T02:16:02;99095.84;;;14.13;100.00
24390;BME280;12510;56.468;-3.004;2023-07-31T02:18:29;99094.44;;;14.17;100.00
24390;BME280;12510;56.468;-3.004;2023-07-31T02:20:55;99083.47;;;14.20;100.00
24390;BME280;12510;56.468;-3.004;2023-07-31T02:23:22;99086.53;;;14.30;100.00
24390;BME280;12510;56.468;-3.004;2023-07-31T02:25:48;99091.06;;;14.36;100.00
24390;BME280;12510;56.468;-3.004;2023-07-31T02:28:15;99091.69;;;14.45;100.00
24390;BME280;12510;56.468;-3.004;2023-07-31T02:30:44;99086.63;;;14.57;100.00
24390;BME280;12510;56.468;-3.004;2023-07-31T02:33:12;99083.22;;;14.63;100.00
24390;BME280;12510;56.468;-3.004;2023-07-31T02:35:39;99082.22;;;14.78;100.00
24390;BME280;12510;56.468;-3.004;2023-07-31T02:38:05;99075.09;;;14.91;100.00
24390;BME280;12510;56.468;-3.004;2023-07-31T02:40:31;99077.53;;;15.00;100.00
24390;BME280;12510;56.468;-3.004;2023-07-31T02:42:58;99077.34;;;15.08;100.00
24390;BME280;12510;56.468;-3.004;2023-07-31T02:45:25;99078.56;;;15.19;100.00
24390;BME280;12510;56.468;-3.004;2023-07-31T02:47:51;99082.03;;;15.26;100.00
24390;BME280;12510;56.468;-3.004;2023-07-31T02:50:18;99078.16;;;15.29;100.00
24390;BME280;12510;56.468;-3.004;2023-07-31T02:52:44;99067.94;;;15.32;100.00
24390;BME280;12510;56.468;-3.004;2023-07-31T02:55:11;99067.75;;;15.40;100.00
24390;BME280;12510;56.468;-3.004;2023-07-31T02:57:37;99058.97;;;15.33;100.00
24390;BME280;12510;56.468;-3.004;2023-07-31T03:00:04;99052.00;;;15.46;100.00
24390;BME280;12510;56.468;-3.004;2023-07-31T03:02:32;99064.25;;;15.53;100.00
24390;BME280;12510;56.468;-3.004;2023-07-31T03:04:59;99061.56;;;15.60;100.00
24390;BME280;12510;56.468;-3.004;2023-07-31T03:07:27;99065.44;;;15.64;100.00
24390;BME280;12510;56.468;-3.004;2023-07-31T03:09:53;99065.44;;;15.64;100.00
24390;BME280;12510;56.468;-3.004;2023-07-31T03:12:20;99053.59;;;15.67;100.00
24390;BME280;12510;56.468;-3.004;2023-07-31T03:14:48;99057.25;;;15.72;100.00
24390;BME280;12510;56.468;-3.004;2023-07-31T03:17:15;99056.88;;;15.82;100.00
24390;BME280;12510;56.468;-3.004;2023-07-31T03:19:41;99067.69;;;15.87;100.00
24390;BME280;12510;56.468;-3.004;2023-07-31T03:22:08;99065.84;;;15.74;100.00
24390;BME280;12510;56.468;-3.004;2023-07-31T03:24:34;99067.03;;;15.92;100.00
24390;BME280;12510;56.468;-3.004;2023-07-31T03:27:01;99071.50;;;15.98;100.00
24390;BME280;12510;56.468;-3.004;2023-07-31T03:29:27;99061.75;;;15.85;100.00
24390;BME280;12510;56.468;-3.004;2023-07-31T03:31:53;99066.25;;;15.78;100.00
24390;BME280;12510;56.468;-3.004;2023-07-31T03:34:20;99066.25;;;15.78;100.00
24390;BME280;12510;56.468;-3.004;2023-07-31T03:36:46;99060.47;;;16.01;100.00
24390;BME280;12510;56.468;-3.004;2023-07-31T03:39:13;99058.84;;;15.94;100.00
24390;BME280;12510;56.468;-3.004;2023-07-31T03:41:39;99059.63;;;16.07;100.00
24390;BME280;12510;56.468;-3.004;2023-07-31T03:44:06;99063.13;;;16.01;100.00
24390;BME280;12510;56.468;-3.004;2023-07-31T03:46:32;99065.28;;;16.18;100.00
24390;BME280;12510;56.468;-3.004;2023-07-31T03:48:59;99062.25;;;16.21;100.00
24390;BME280;12510;56.468;-3.004;2023-07-31T03:51:26;99055.72;;;16.17;100.00
24390;BME280;12510;56.468;-3.004;2023-07-31T03:53:52;99061.81;;;16.24;100.00
24390;BME280;12510;56.468;-3.004;2023-07-31T03:56:19;99057.50;;;16.23;100.00
24390;BME280;12510;56.468;-3.004;2023-07-31T03:58:45;99055.03;;;16.28;100.00
24390;BME280;12510;56.468;-3.004;2023-07-31T04:01:12;99054.63;;;16.24;100.00
24390;BME280;12510;56.468;-3.004;2023-07-31T04:03:38;99048.34;;;16.19;100.00
24390;BME280;12510;56.468;-3.004;2023-07-31T04:06:05;99044.06;;;16.11;100.00
24390;BME280;12510;56.468;-3.004;2023-07-31T04:08:33;99048.97;;;16.21;100.00
24390;BME280;12510;56.468;-3.004;2023-07-31T04:10:59;99042.03;;;16.13;100.00
24390;BME280;12510;56.468;-3.004;2023-07-31T04:13:26;99052.84;;;16.18;100.00
24390;BME280;12510;56.468;-3.004;2023-07-31T04:15:53;99045.69;;;16.19;100.00
24390;BME280;12510;56.468;-3.004;2023-07-31T04:18:20;99049.34;;;16.18;100.00
24390;BME280;12510;56.468;-3.004;2023-07-31T04:20:46;99046.88;;;16.23;100.00
24390;BME280;12510;56.468;-3.004;2023-07-31T04:23:13;99048.91;;;16.28;100.00
24390;BME280;12510;56.468;-3.004;2023-07-31T04:25:39;99051.56;;;16.28;100.00
24390;BME280;12510;56.468;-3.004;2023-07-31T04:28:07;99048.91;;;16.28;100.00
24390;BME280;12510;56.468;-3.004;2023-07-31T04:30:34;99044.41;;;16.28;100.00
24390;BME280;12510;56.468;-3.004;2023-07-31T04:33:00;99046.06;;;16.29;100.00
24390;BME280;12510;56.468;-3.004;2023-07-31T04:35:27;99041.13;;;16.26;100.00
24390;BME280;12510;56.468;-3.004;2023-07-31T04:37:54;99039.09;;;16.28;100.00
24390;BME280;12510;56.468;-3.004;2023-07-31T04:40:20;99034.81;;;16.27;100.00
24390;BME280;12510;56.468;-3.004;2023-07-31T04:42:47;99038.25;;;16.34;100.00
24390;BME280;12510;56.468;-3.004;2023-07-31T04:45:14;99037.03;;;16.37;100.00
24390;BME280;12510;56.468;-3.004;2023-07-31T04:47:40;99032.28;;;16.39;100.00
24390;BME280;12510;56.468;-3.004;2023-07-31T04:50:07;99025.59;;;16.30;100.00
24390;BME280;12510;56.468;-3.004;2023-07-31T04:52:34;99022.50;;;16.33;100.00
24390;BME280;12510;56.468;-3.004;2023-07-31T04:55:00;99040.47;;;16.37;100.00
24390;BME280;12510;56.468;-3.004;2023-07-31T04:57:26;99031.53;;;16.32;100.00
24390;BME280;12510;56.468;-3.004;2023-07-31T04:59:53;99026.19;;;16.38;100.00
24390;BME280;12510;56.468;-3.004;2023-07-31T05:02:19;99028.63;;;16.40;100.00
24390;BME280;12510;56.468;-3.004;2023-07-31T05:04:46;99023.78;;;16.30;100.00
24390;BME280;12510;56.468;-3.004;2023-07-31T05:07:12;99017.41;;;16.31;100.00
24390;BME280;12510;56.468;-3.004;2023-07-31T05:09:39;99015.97;;;16.35;100.00
24390;BME280;12510;56.468;-3.004;2023-07-31T05:12:05;99020.50;;;16.28;100.00
24390;BME280;12510;56.468;-3.004;2023-07-31T05:14:32;99014.56;;;16.26;100.00
24390;BME280;12510;56.468;-3.004;2023-07-31T05:16:58;99015.16;;;16.35;100.00
24390;BME280;12510;56.468;-3.004;2023-07-31T05:19:25;99018.63;;;16.35;100.00
24390;BME280;12510;56.468;-3.004;2023-07-31T05:21:51;99000.47;;;16.32;100.00
24390;BME280;12510;56.468;-3.004;2023-07-31T05:24:18;98992.31;;;16.27;100.00
24390;BME280;12510;56.468;-3.004;2023-07-31T05:26:44;99001.44;;;16.38;100.00
24390;BME280;12510;56.468;-3.004;2023-07-31T05:29:10;99000.19;;;16.40;100.00
24390;BME280;12510;56.468;-3.004;2023-07-31T05:31:38;99004.28;;;16.43;100.00
24390;BME280;12510;56.468;-3.004;2023-07-31T05:34:04;99006.66;;;16.51;100.00
24390;BME280;12510;56.468;-3.004;2023-07-31T05:36:31;98988.78;;;16.40;100.00
24390;BME280;12510;56.468;-3.004;2023-07-31T05:38:57;98981.81;;;16.39;100.00
24390;BME280;12510;56.468;-3.004;2023-07-31T05:41:23;98991.16;;;16.48;100.00
24390;BME280;12510;56.468;-3.004;2023-07-31T05:43:50;98989.75;;;16.46;100.00
24390;BME280;12510;56.468;-3.004;2023-07-31T05:46:17;98988.09;;;16.45;100.00
24390;BME280;12510;56.468;-3.004;2023-07-31T05:48:44;98993.56;;;16.56;100.00
24390;BME280;12510;56.468;-3.004;2023-07-31T05:51:10;98987.00;;;16.59;100.00
24390;BME280;12510;56.468;-3.004;2023-07-31T05:53:36;98986.50;;;16.69;100.00
24390;BME280;12510;56.468;-3.004;2023-07-31T05:56:06;98984.78;;;16.81;100.00
24390;BME280;12510;56.468;-3.004;2023-07-31T05:58:33;98986.25;;;16.77;100.00
24390;BME280;12510;56.468;-3.004;2023-07-31T06:00:59;98984.34;;;16.84;100.00
24390;BME280;12510;56.468;-3.004;2023-07-31T06:03:25;98990.47;;;16.85;100.00
24390;BME280;12510;56.468;-3.004;2023-07-31T06:05:52;98994.97;;;16.84;100.00
24390;BME280;12510;56.468;-3.004;2023-07-31T06:08:18;98988.41;;;16.87;100.00
24390;BME280;12510;56.468;-3.004;2023-07-31T06:10:45;98987.13;;;16.96;100.00
24390;BME280;12510;56.468;-3.004;2023-07-31T06:13:11;98978.19;;;16.90;100.00
24390;BME280;12510;56.468;-3.004;2023-07-31T06:15:38;98960.41;;;16.59;100.00
24390;BME280;12510;56.468;-3.004;2023-07-31T06:18:04;98963.88;;;16.85;100.00
24390;BME280;12510;56.468;-3.004;2023-07-31T06:20:34;98970.22;;;16.90;100.00
24390;BME280;12510;56.468;-3.004;2023-07-31T06:23:01;98970.59;;;16.87;100.00
24390;BME280;12510;56.468;-3.004;2023-07-31T06:25:27;98970.38;;;16.89;100.00
24390;BME280;12510;56.468;-3.004;2023-07-31T06:27:54;98969.03;;;16.80;100.00
24390;BME280;12510;56.468;-3.004;2023-07-31T06:30:20;98952.50;;;16.78;100.00
24390;BME280;12510;56.468;-3.004;2023-07-31T06:32:47;98940.19;;;16.83;100.00
24390;BME280;12510;56.468;-3.004;2023-07-31T06:35:13;98944.94;;;17.00;100.00
24390;BME280;12510;56.468;-3.004;2023-07-31T06:37:40;98937.19;;;16.98;100.00
24390;BME280;12510;56.468;-3.004;2023-07-31T06:40:07;98939.00;;;17.04;100.00
24390;BME280;12510;56.468;-3.004;2023-07-31T06:42:35;98938.84;;;17.18;100.00
24390;BME280;12510;56.468;-3.004;2023-07-31T06:45:02;98940.56;;;17.31;100.00
24390;BME280;12510;56.468;-3.004;2023-07-31T06:47:29;98939.59;;;17.43;100.00
24390;BME280;12510;56.468;-3.004;2023-07-31T06:49:56;98934.56;;;17.35;100.00
24390;BME280;12510;56.468;-3.004;2023-07-31T06:52:22;98930.72;;;17.31;100.00
24390;BME280;12510;56.468;-3.004;2023-07-31T06:55:04;98920.31;;;17.30;100.00
24390;BME280;12510;56.468;-3.004;2023-07-31T06:57:42;98932.47;;;17.56;100.00
24390;BME280;12510;56.468;-3.004;2023-07-31T07:00:09;98923.16;;;17.47;100.00
24390;BME280;12510;56.468;-3.004;2023-07-31T07:02:36;98934.84;;;17.64;100.00
24390;BME280;12510;56.468;-3.004;2023-07-31T07:05:03;98932.19;;;17.64;100.00
24390;BME280;12510;56.468;-3.004;2023-07-31T07:07:29;98924.47;;;17.56;100.00
24390;BME280;12510;56.468;-3.004;2023-07-31T07:09:56;98919.59;;;17.71;100.00
24390;BME280;12510;56.468;-3.004;2023-07-31T07:12:22;98928.75;;;17.75;100.00
24390;BME280;12510;56.468;-3.004;2023-07-31T07:14:48;98916.47;;;17.93;100.00
24390;BME280;12510;56.468;-3.004;2023-07-31T07:17:15;98912.53;;;17.96;100.00
24390;BME280;12510;56.468;-3.004;2023-07-31T07:19:41;98913.34;;;17.96;100.00
24390;BME280;12510;56.468;-3.004;2023-07-31T07:22:08;98914.19;;;18.08;100.00
24390;BME280;12510;56.468;-3.004;2023-07-31T07:24:34;98911.41;;;18.03;100.00
24390;BME280;12510;56.468;-3.004;2023-07-31T07:27:01;98906.25;;;17.90;100.00
24390;BME280;12510;56.468;-3.004;2023-07-31T07:29:27;98902.94;;;17.76;100.00
24390;BME280;12510;56.468;-3.004;2023-07-31T07:31:54;98898.69;;;17.87;100.00
24390;BME280;12510;56.468;-3.004;2023-07-31T07:34:23;98908.06;;;17.78;100.00
24390;BME280;12510;56.468;-3.004;2023-07-31T07:36:50;98885.25;;;17.51;100.00
24390;BME280;12510;56.468;-3.004;2023-07-31T07:39:17;98879.66;;;17.71;100.00
24390;BME280;12510;56.468;-3.004;2023-07-31T07:41:43;98880.94;;;17.99;100.00
24390;BME280;12510;56.468;-3.004;2023-07-31T07:44:10;98881.19;;;18.09;100.00
24390;BME280;12510;56.468;-3.004;2023-07-31T07:46:36;98861.56;;;17.92;100.00
24390;BME280;12510;56.468;-3.004;2023-07-31T07:49:02;98835.25;;;17.84;100.00
24390;BME280;12510;56.468;-3.004;2023-07-31T07:51:29;98838.00;;;18.43;100.00
24390;BME280;12510;56.468;-3.004;2023-07-31T07:53:58;98841.72;;;18.30;100.00
24390;BME280;12510;56.468;-3.004;2023-07-31T07:56:27;98844.22;;;18.01;100.00
24390;BME280;12510;56.468;-3.004;2023-07-31T07:58:54;98853.50;;;18.11;100.00
24390;BME280;12510;56.468;-3.004;2023-07-31T08:01:21;98826.50;;;17.95;100.00
24390;BME280;12510;56.468;-3.004;2023-07-31T08:03:47;98827.56;;;18.06;100.00
24390;BME280;12510;56.468;-3.004;2023-07-31T08:06:14;98853.09;;;17.83;100.00
24390;BME280;12510;56.468;-3.004;2023-07-31T08:08:40;98839.06;;;17.88;100.00
24390;BME280;12510;56.468;-3.004;2023-07-31T08:11:07;98817.78;;;17.88;100.00
24390;BME280;12510;56.468;-3.004;2023-07-31T08:13:33;98802.06;;;17.56;100.00
24390;BME280;12510;56.468;-3.004;2023-07-31T08:16:00;98780.75;;;17.44;100.00
24390;BME280;12510;56.468;-3.004;2023-07-31T08:18:26;98781.09;;;17.48;100.00
24390;BME280;12510;56.468;-3.004;2023-07-31T08:20:53;98771.56;;;17.28;100.00
24390;BME280;12510;56.468;-3.004;2023-07-31T08:23:20;98775.22;;;17.46;100.00
24390;BME280;12510;56.468;-3.004;2023-07-31T08:25:46;98773.63;;;17.26;100.00
24390;BME280;12510;56.468;-3.004;2023-07-31T08:28:13;98768.41;;;17.19;100.00
24390;BME280;12510;56.468;-3.004;2023-07-31T08:30:39;98765.72;;;17.50;100.00
24390;BME280;12510;56.468;-3.004;2023-07-31T08:33:06;98771.56;;;17.28;100.00
24390;BME280;12510;56.468;-3.004;2023-07-31T08:35:32;98754.16;;;17.14;100.00
24390;BME280;12510;56.468;-3.004;2023-07-31T08:37:58;98747.72;;;17.33;100.00
24390;BME280;12510;56.468;-3.004;2023-07-31T08:40:25;98764.16;;;17.30;100.00
24390;BME280;12510;56.468;-3.004;2023-07-31T08:42:54;98774.78;;;17.30;100.00
24390;BME280;12510;56.468;-3.004;2023-07-31T08:45:22;98751.03;;;17.17;100.00
24390;BME280;12510;56.468;-3.004;2023-07-31T08:47:51;98750.72;;;16.95;100.00
24390;BME280;12510;56.468;-3.004;2023-07-31T08:50:19;98712.91;;;16.74;100.00
24390;BME280;12510;56.468;-3.004;2023-07-31T08:52:47;98688.34;;;16.60;100.00
24390;BME280;12510;56.468;-3.004;2023-07-31T08:55:14;98688.28;;;16.48;100.00
24390;BME280;12510;56.468;-3.004;2023-07-31T08:57:42;98698.13;;;16.78;100.00
24390;BME280;12510;56.468;-3.004;2023-07-31T09:00:10;98705.00;;;16.67;100.00
24390;BME280;12510;56.468;-3.004;2023-07-31T09:05:10;98675.94;;;16.54;100.00
24390;BME280;12510;56.468;-3.004;2023-07-31T09:07:37;98661.00;;;16.41;100.00
24390;BME280;12510;56.468;-3.004;2023-07-31T09:10:06;98658.09;;;16.42;100.00
24390;BME280;12510;56.468;-3.004;2023-07-31T09:12:33;98655.38;;;16.49;100.00
24390;BME280;12510;56.468;-3.004;2023-07-31T09:15:00;98640.59;;;16.53;100.00
24390;BME280;12510;56.468;-3.004;2023-07-31T09:17:32;98194.53;;;16.28;100.00
24390;BME280;12510;56.468;-3.004;2023-07-31T09:22:39;98497.41;;;16.33;100.00
24390;BME280;12510;56.468;-3.004;2023-07-31T09:25:22;98508.69;;;16.59;100.00
24390;BME280;12510;56.468;-3.004;2023-07-31T09:30:18;98543.88;;;16.42;100.00
24390;BME280;12510;56.468;-3.004;2023-07-31T09:32:46;98539.59;;;16.41;100.00
24390;BME280;12510;56.468;-3.004;2023-07-31T09:35:19;98527.75;;;16.56;100.00
24390;BME280;12510;56.468;-3.004;2023-07-31T09:37:51;98531.47;;;16.67;100.00
24390;BME280;12510;56.468;-3.004;2023-07-31T09:40:29;98542.56;;;16.64;100.00
24390;BME280;12510;56.468;-3.004;2023-07-31T09:42:57;97690.94;;;16.39;68.80
24390;BME280;12510;56.468;-3.004;2023-07-31T09:45:25;97501.16;;;16.24;67.49
24390;BME280;12510;56.468;-3.004;2023-07-31T09:47:52;97557.38;;;16.38;67.60
24390;BME280;12510;56.468;-3.004;2023-07-31T09:50:21;97833.34;;;16.62;68.28
24390;BME280;12510;56.468;-3.004;2023-07-31T09:52:48;98064.59;;;16.67;69.43
24390;BME280;12510;56.468;-3.004;2023-07-31T09:55:14;98230.78;;;16.87;70.06
24390;BME280;12510;56.468;-3.004;2023-07-31T09:57:44;98346.56;;;17.06;70.95
24390;BME280;12510;56.468;-3.004;2023-07-31T10:00:12;98402.88;;;17.15;71.69
24390;BME280;12510;56.468;-3.004;2023-07-31T10:02:39;98451.28;;;17.29;72.46
24390;BME280;12510;56.468;-3.004;2023-07-31T10:05:06;98490.41;;;17.29;72.96
24390;BME280;12510;56.468;-3.004;2023-07-31T10:07:46;98497.22;;;17.24;73.88
24390;BME280;12510;56.468;-3.004;2023-07-31T10:10:15;98520.94;;;17.26;74.73
24390;BME280;12510;56.468;-3.004;2023-07-31T10:12:43;98524.97;;;17.52;74.43
24390;BME280;12510;56.468;-3.004;2023-07-31T10:15:12;98527.75;;;17.46;74.67
24390;BME280;12510;56.468;-3.004;2023-07-31T10:17:40;98538.16;;;17.59;74.94
24390;BME280;12510;56.468;-3.004;2023-07-31T10:20:08;98545.06;;;17.60;74.98
24390;BME280;12510;56.468;-3.004;2023-07-31T10:22:36;98548.44;;;17.55;75.38
24390;BME280;12510;56.468;-3.004;2023-07-31T10:25:03;98554.00;;;17.54;75.66
24390;BME280;12510;56.468;-3.004;2023-07-31T10:27:29;98544.16;;;17.42;75.64
24390;BME280;12510;56.468;-3.004;2023-07-31T10:29:57;98533.97;;;17.51;75.23
24390;BME280;12510;56.468;-3.004;2023-07-31T10:32:25;98534.69;;;17.23;76.17
24390;BME280;12510;56.468;-3.004;2023-07-31T10:34:54;98512.03;;;17.32;76.20
24390;BME280;12510;56.468;-3.004;2023-07-31T10:37:41;98504.97;;;17.38;76.26
24390;BME280;12510;56.468;-3.004;2023-07-31T10:40:11;98501.59;;;17.42;76.52
24390;BME280;12510;56.468;-3.004;2023-07-31T10:45:11;98476.63;;;17.32;77.25
24390;BME280;12510;56.468;-3.004;2023-07-31T10:47:47;98438.03;;;16.94;77.36
24390;BME280;12510;56.468;-3.004;2023-07-31T10:50:21;98372.72;;;17.09;74.93
24390;BME280;12510;56.468;-3.004;2023-07-31T10:52:51;98349.91;;;17.14;74.58
24390;BME280;12510;56.468;-3.004;2023-07-31T10:55:31;98348.63;;;17.28;74.52
24390;BME280;12510;56.468;-3.004;2023-07-31T10:58:07;98321.88;;;17.35;74.04
24390;BME280;12510;56.468;-3.004;2023-07-31T11:00:39;98349.19;;;17.18;74.78
24390;BME280;12510;56.468;-3.004;2023-07-31T11:03:09;98366.09;;;17.24;75.50
24390;BME280;12510;56.468;-3.004;2023-07-31T11:05:47;98377.50;;;17.36;76.16
24390;BME280;12510;56.468;-3.004;2023-07-31T11:08:18;98402.41;;;17.06;77.60
24390;BME280;12510;56.468;-3.004;2023-07-31T11:10:50;98385.06;;;17.16;77.38
24390;BME280;12510;56.468;-3.004;2023-07-31T11:13:17;98377.00;;;17.11;77.88
24390;BME280;12510;56.468;-3.004;2023-07-31T11:15:44;98360.09;;;17.05;77.54
24390;BME280;12510;56.468;-3.004;2023-07-31T11:18:11;98370.72;;;17.17;77.75
24390;BME280;12510;56.468;-3.004;2023-07-31T11:20:38;98352.13;;;17.05;77.93
24390;BME280;12510;56.468;-3.004;2023-07-31T11:23:09;98333.09;;;16.96;77.94
24390;BME280;12510;56.468;-3.004;2023-07-31T11:25:38;98324.13;;;17.14;77.58
24390;BME280;12510;56.468;-3.004;2023-07-31T11:28:10;98318.75;;;16.97;78.23
24390;BME280;12510;56.468;-3.004;2023-07-31T11:30:38;98317.84;;;17.32;77.97
24390;BME280;12510;56.468;-3.004;2023-07-31T11:33:08;98307.28;;;17.08;78.50
24390;BME280;12510;56.468;-3.004;2023-07-31T11:38:31;98202.91;;;17.01;76.43
24390;BME280;12510;56.468;-3.004;2023-07-31T11:41:00;98197.41;;;16.91;76.60
24390;BME280;12510;56.468;-3.004;2023-07-31T11:43:28;98212.06;;;16.94;76.98
24390;BME280;12510;56.468;-3.004;2023-07-31T11:45:56;98214.00;;;16.98;77.50
24390;BME280;12510;56.468;-3.004;2023-07-31T11:48:25;98182.59;;;16.83;76.78
24390;BME280;12510;56.468;-3.004;2023-07-31T11:50:54;97727.47;;;16.71;67.84
24390;BME280;12510;56.468;-3.004;2023-07-31T11:53:33;97260.38;;;16.78;67.83
24390;BME280;12510;56.468;-3.004;2023-07-31T11:56:02;97285.91;;;16.79;67.60
24390;BME280;12510;56.468;-3.004;2023-07-31T11:58:34;96343.31;;;16.47;64.20
24390;BME280;12510;56.468;-3.004;2023-07-31T12:01:01;97123.72;;;16.43;64.92
24390;BME280;12510;56.468;-3.004;2023-07-31T12:03:28;97851.06;;;16.56;65.38
24390;BME280;12510;56.468;-3.004;2023-07-31T12:05:55;97413.91;;;16.66;65.84
24390;BME280;12510;56.468;-3.004;2023-07-31T12:08:23;98577.75;;;16.29;64.99
24390;BME280;12510;56.468;-3.004;2023-07-31T12:10:50;98804.38;;;16.48;65.16
24390;BME280;12510;56.468;-3.004;2023-07-31T12:13:25;98533.56;;;16.76;65.59
24390;BME280;12510;56.468;-3.004;2023-07-31T12:15:56;98017.19;;;16.93;66.19
24390;BME280;12510;56.468;-3.004;2023-07-31T12:18:27;97317.03;;;16.89;67.03
24390;BME280;12510;56.468;-3.004;2023-07-31T12:20:57;96759.25;;;16.98;68.00
24390;BME280;12510;56.468;-3.004;2023-07-31T12:23:28;96474.56;;;17.34;69.26
24390;BME280;12510;56.468;-3.004;2023-07-31T12:26:06;96263.88;;;17.23;71.27
24390;BME280;12510;56.468;-3.004;2023-07-31T12:28:42;96195.75;;;17.27;73.17
24390;BME280;12510;56.468;-3.004;2023-07-31T12:31:14;96200.59;;;16.82;75.57
24390;BME280;12510;56.468;-3.004;2023-07-31T12:33:41;96193.47;;;17.20;76.04
24390;BME280;12510;56.468;-3.004;2023-07-31T12:36:14;96147.19;;;17.21;78.39
24390;BME280;12510;56.468;-3.004;2023-07-31T12:38:42;96104.78;;;17.30;80.24
24390;BME280;12510;56.468;-3.004;2023-07-31T12:41:08;96082.34;;;17.36;82.36
24390;BME280;12510;56.468;-3.004;2023-07-31T12:43:37;95915.44;;;17.33;84.84
24390;BME280;12510;56.468;-3.004;2023-07-31T12:46:04;95885.59;;;17.64;85.45
24390;BME280;12510;56.468;-3.004;2023-07-31T12:48:31;95871.47;;;17.78;87.98
24390;BME280;12510;56.468;-3.004;2023-07-31T12:50:58;95811.41;;;17.99;91.34
24390;BME280;12510;56.468;-3.004;2023-07-31T12:53:24;95794.75;;;17.93;95.90
24390;BME280;12510;56.468;-3.004;2023-07-31T12:55:51;95821.81;;;17.73;99.67
24390;BME280;12510;56.468;-3.004;2023-07-31T12:58:17;95790.75;;;17.82;100.00
24390;BME280;12510;56.468;-3.004;2023-07-31T13:00:44;95769.28;;;18.01;100.00
24390;BME280;12510;56.468;-3.004;2023-07-31T13:03:10;95756.66;;;17.84;100.00
24390;BME280;12510;56.468;-3.004;2023-07-31T13:05:37;95730.09;;;18.16;100.00
24390;BME280;12510;56.468;-3.004;2023-07-31T13:08:03;95711.84;;;18.32;100.00
24390;BME280;12510;56.468;-3.004;2023-07-31T13:10:30;95688.38;;;18.42;100.00